createdAt,value
2018-07-04T00:02:26.631Z,65.00
2018-07-04T00:05:31.000Z,65.20
2018-07-04T00:08:36.384Z,65.30
2018-07-04T00:11:41.847Z,65.50
2018-07-04T00:14:46.273Z,65.50
2018-07-04T00:17:52.088Z,65.60
2018-07-04T00:20:56.498Z,65.40
2018-07-04T00:24:01.201Z,64.60
2018-07-04T00:27:06.778Z,65.30
2018-07-04T00:30:12.356Z,65.40
2018-07-04T00:33:16.704Z,65.50
2018-07-04T00:36:22.016Z,65.60
2018-07-04T00:39:26.996Z,65.60
2018-07-04T00:42:32.801Z,65.70
2018-07-04T00:45:38.290Z,65.90
2018-07-04T00:48:42.860Z,66.10
2018-07-04T00:51:47.335Z,66.00
2018-07-04T00:54:51.935Z,66.10
2018-07-04T00:57:56.309Z,66.50
2018-07-04T01:01:01.111Z,66.60
2018-07-04T01:04:05.651Z,66.70
2018-07-04T01:07:10.049Z,66.90
2018-07-04T01:10:14.572Z,67.10
2018-07-04T01:13:19.113Z,66.90
2018-07-04T01:16:23.689Z,67.10
2018-07-04T01:19:28.095Z,68.40
2018-07-04T01:22:32.727Z,67.20
2018-07-04T01:25:37.175Z,67.20
2018-07-04T01:28:47.191Z,66.90
2018-07-04T01:31:52.179Z,67.00
2018-07-04T01:34:56.547Z,67.10
2018-07-04T01:38:00.840Z,67.10
2018-07-04T01:41:05.707Z,66.60
2018-07-04T01:44:10.165Z,66.70
2018-07-04T01:47:14.675Z,66.70
2018-07-04T01:50:19.054Z,66.50
2018-07-04T01:53:23.591Z,66.40
2018-07-04T01:56:28.011Z,66.40
2018-07-04T02:02:54.111Z,66.40
2018-07-04T02:05:58.589Z,66.40
2018-07-04T02:09:02.849Z,66.30
2018-07-04T02:12:07.260Z,66.50
2018-07-04T02:15:12.383Z,66.40
2018-07-04T02:18:16.661Z,66.60
2018-07-04T02:21:21.072Z,66.70
2018-07-04T02:24:25.428Z,66.80
2018-07-04T02:27:29.877Z,67.20
2018-07-04T02:30:34.193Z,67.50
2018-07-04T02:33:38.853Z,67.60
2018-07-04T02:36:43.057Z,67.70
2018-07-04T02:39:48.001Z,67.60
2018-07-04T02:42:53.487Z,67.80
2018-07-04T02:45:58.041Z,68.10
2018-07-04T02:49:02.533Z,67.70
2018-07-04T02:52:06.781Z,68.10
2018-07-04T02:55:11.068Z,68.10
2018-07-04T02:58:15.447Z,68.20
2018-07-04T03:01:20.103Z,68.30
2018-07-04T03:04:25.379Z,68.40
2018-07-04T03:07:29.947Z,68.40
2018-07-04T03:10:34.718Z,68.70
2018-07-04T03:13:42.200Z,68.70
2018-07-04T03:16:46.449Z,68.50
2018-07-04T03:19:50.684Z,68.50
2018-07-04T03:22:55.364Z,68.30
2018-07-04T03:25:59.763Z,68.10
2018-07-04T03:29:03.987Z,67.90
2018-07-04T03:32:08.844Z,67.50
2018-07-04T03:35:13.061Z,68.50
2018-07-04T03:38:17.335Z,67.20
2018-07-04T03:41:21.608Z,66.90
2018-07-04T03:44:26.345Z,66.80
2018-07-04T03:47:30.471Z,66.50
2018-07-04T03:50:34.680Z,66.40
2018-07-04T03:53:38.804Z,66.50
2018-07-04T03:56:43.060Z,66.50
2018-07-04T03:59:47.327Z,66.50
2018-07-04T04:02:51.635Z,66.60
2018-07-04T04:05:56.467Z,66.60
2018-07-04T04:09:00.857Z,66.60
2018-07-04T04:12:05.188Z,66.60
2018-07-04T04:15:11.242Z,66.70
2018-07-04T04:18:15.415Z,66.50
2018-07-04T04:21:19.929Z,66.60
2018-07-04T04:24:24.375Z,66.70
2018-07-04T04:27:29.756Z,66.50
2018-07-04T04:30:33.944Z,66.70
2018-07-04T04:33:38.978Z,66.80
2018-07-04T04:36:43.236Z,66.60
2018-07-04T04:39:47.794Z,67.20
2018-07-04T04:42:52.772Z,66.00
2018-07-04T04:45:57.076Z,66.10
2018-07-04T04:49:01.496Z,66.00
2018-07-04T04:52:06.193Z,66.00
2018-07-04T04:55:10.500Z,66.00
2018-07-04T04:58:18.837Z,66.00
2018-07-04T05:01:23.624Z,66.00
2018-07-04T05:04:28.348Z,66.10
2018-07-04T05:07:32.752Z,66.00
2018-07-04T05:10:37.100Z,66.00
2018-07-04T05:13:42.543Z,65.90
2018-07-04T05:16:46.766Z,66.20
2018-07-04T05:19:51.108Z,66.20
2018-07-04T05:22:55.505Z,66.10
2018-07-04T05:25:59.639Z,66.20
2018-07-04T05:29:03.977Z,66.10
2018-07-04T05:32:09.149Z,66.10
2018-07-04T05:35:13.570Z,65.80
2018-07-04T05:38:18.551Z,65.60
2018-07-04T05:41:23.474Z,65.70
2018-07-04T05:44:28.510Z,65.80
2018-07-04T05:47:32.803Z,65.70
2018-07-04T05:50:37.276Z,65.40
2018-07-04T05:53:42.316Z,65.50
2018-07-04T05:56:46.679Z,65.50
2018-07-04T05:59:51.080Z,65.40
2018-07-04T06:02:56.718Z,65.00
2018-07-04T06:06:00.946Z,64.80
2018-07-04T06:09:06.238Z,64.70
2018-07-04T06:12:10.712Z,64.60
2018-07-04T06:15:15.859Z,64.50
2018-07-04T06:18:20.325Z,64.60
2018-07-04T06:21:25.509Z,64.40
2018-07-04T06:24:29.863Z,64.40
2018-07-04T06:27:33.953Z,64.30
2018-07-04T06:30:39.322Z,64.10
2018-07-04T06:33:43.776Z,64.00
2018-07-04T06:36:48.155Z,63.70
2018-07-04T06:39:33.992Z,62.80
2018-07-04T06:42:13.632Z,63.50
2018-07-04T06:44:53.844Z,61.90
2018-07-04T06:47:33.328Z,64.20
2018-07-04T06:50:12.936Z,61.90
2018-07-04T06:52:53.312Z,58.40
2018-07-04T06:55:33.383Z,56.40
2018-07-04T06:58:12.945Z,55.80
2018-07-04T07:00:53.527Z,54.50
2018-07-04T07:03:52.549Z,53.60
2018-07-04T07:06:56.975Z,53.60
2018-07-04T07:10:01.379Z,53.90
2018-07-04T07:13:06.180Z,52.50
2018-07-04T07:16:10.488Z,53.40
2018-07-04T07:19:15.428Z,52.10
2018-07-04T07:22:20.282Z,52.90
2018-07-04T07:25:26.228Z,54.10
2018-07-04T07:31:29.792Z,50.20
2018-07-04T07:34:34.136Z,49.50
2018-07-04T07:37:38.940Z,49.30
2018-07-04T07:40:43.435Z,48.80
2018-07-04T07:43:48.049Z,47.90
2018-07-04T07:46:52.548Z,48.00
2018-07-04T07:49:56.813Z,46.70
2018-07-04T07:53:03.065Z,45.00
2018-07-04T07:56:07.473Z,44.40
2018-07-04T07:59:12.328Z,44.10
2018-07-04T08:02:16.648Z,43.70
2018-07-04T08:05:21.095Z,43.60
2018-07-04T08:08:26.758Z,44.90
2018-07-04T08:11:31.052Z,44.20
2018-07-04T08:14:36.208Z,42.70
2018-07-04T08:17:40.504Z,43.30
2018-07-04T08:20:45.260Z,43.40
2018-07-04T08:26:47.714Z,42.00
2018-07-04T08:29:52.593Z,41.60
2018-07-04T08:32:57.877Z,41.10
2018-07-04T08:36:03.080Z,40.10
2018-07-04T08:39:07.340Z,40.40
2018-07-04T08:42:12.264Z,41.40
2018-07-04T08:45:17.076Z,42.60
2018-07-04T08:48:23.151Z,41.80
2018-07-04T08:51:28.246Z,38.60
2018-07-04T08:54:32.681Z,37.60
2018-07-04T08:57:37.293Z,40.20
2018-07-04T09:03:41.509Z,39.70
2018-07-04T09:06:46.093Z,39.30
2018-07-04T09:09:50.627Z,37.70
2018-07-04T09:12:56.395Z,39.30
2018-07-04T09:16:00.880Z,37.30
2018-07-04T09:19:06.010Z,38.80
2018-07-04T09:25:09.340Z,36.80
2018-07-04T09:28:14.082Z,36.30
2018-07-04T09:31:18.223Z,35.50
2018-07-04T09:34:23.473Z,36.40
2018-07-04T09:40:28.287Z,39.10
2018-07-04T09:43:32.696Z,37.20
2018-07-04T09:46:36.947Z,37.80
2018-07-04T09:49:41.351Z,37.80
2018-07-04T09:52:46.427Z,36.70
2018-07-04T09:55:50.772Z,37.70
2018-07-04T09:58:56.568Z,37.30
2018-07-04T10:02:01.123Z,39.70
2018-07-04T10:05:06.341Z,37.70
2018-07-04T10:08:10.944Z,40.00
2018-07-04T10:11:15.850Z,37.90
2018-07-04T10:14:20.179Z,39.10
2018-07-04T10:17:25.444Z,38.60
2018-07-04T10:20:29.972Z,37.60
2018-07-04T10:23:34.372Z,38.70
2018-07-04T10:26:39.036Z,37.00
2018-07-04T10:29:43.243Z,37.00
2018-07-04T10:32:47.656Z,38.00
2018-07-04T10:35:52.618Z,36.20
2018-07-04T10:38:56.882Z,35.90
2018-07-04T10:42:01.232Z,36.50
2018-07-04T10:45:05.838Z,36.50
2018-07-04T10:48:10.764Z,36.30
2018-07-04T10:51:15.316Z,36.90
2018-07-04T10:54:19.653Z,36.20
2018-07-04T10:57:25.702Z,37.50
2018-07-04T11:00:30.169Z,37.40
2018-07-04T11:03:34.882Z,36.50
2018-07-04T11:06:39.168Z,36.80
2018-07-04T11:09:43.555Z,37.50
2018-07-04T11:12:48.024Z,38.40
2018-07-04T11:15:53.271Z,36.40
2018-07-04T11:18:57.985Z,35.90
2018-07-04T11:22:02.508Z,35.90
2018-07-04T11:25:06.987Z,37.90
2018-07-04T11:28:12.147Z,38.80
2018-07-04T11:31:16.867Z,37.30
2018-07-04T11:34:21.219Z,38.50
2018-07-04T11:37:26.444Z,37.70
2018-07-04T11:40:30.683Z,36.60
2018-07-04T11:43:35.980Z,38.60
2018-07-04T11:46:22.849Z,36.30
2018-07-04T11:49:03.540Z,37.00
2018-07-04T11:51:43.056Z,36.60
2018-07-04T11:54:23.878Z,37.40
2018-07-04T11:57:03.472Z,37.40
2018-07-04T11:59:43.201Z,37.20
2018-07-04T12:02:23.793Z,36.60
2018-07-04T12:05:22.369Z,37.50
2018-07-04T12:08:08.121Z,38.70
2018-07-04T12:10:48.909Z,37.60
2018-07-04T12:13:29.044Z,37.10
2018-07-04T12:16:08.622Z,37.20
2018-07-04T12:18:48.292Z,37.60
2018-07-04T12:21:27.830Z,38.00
2018-07-04T12:24:07.678Z,38.30
2018-07-04T12:26:47.414Z,38.00
2018-07-04T12:29:27.023Z,37.90
2018-07-04T12:32:06.630Z,37.10
2018-07-04T12:34:46.270Z,36.70
2018-07-04T12:37:26.718Z,36.50
2018-07-04T12:40:06.151Z,37.80
2018-07-04T12:42:45.851Z,37.80
2018-07-04T12:45:26.550Z,37.40
2018-07-04T12:48:06.136Z,36.90
2018-07-04T12:50:46.218Z,36.60
2018-07-04T12:53:27.893Z,36.90
2018-07-04T12:56:26.313Z,37.70
2018-07-04T12:59:30.678Z,36.90
2018-07-04T13:02:35.976Z,36.80
2018-07-04T13:05:40.297Z,37.00
2018-07-04T13:08:45.301Z,36.70
2018-07-04T13:11:50.893Z,36.10
2018-07-04T13:14:55.240Z,37.50
2018-07-04T13:17:59.948Z,37.50
2018-07-04T13:21:04.325Z,37.90
2018-07-04T13:24:08.967Z,36.40
2018-07-04T13:27:13.392Z,36.80
2018-07-04T13:30:17.998Z,37.50
2018-07-04T13:33:23.253Z,38.40
2018-07-04T13:36:28.258Z,37.30
2018-07-04T13:39:32.550Z,37.20
2018-07-04T13:42:37.573Z,39.30
2018-07-04T13:45:42.284Z,37.20
2018-07-04T13:48:46.781Z,37.20
2018-07-04T13:51:51.289Z,36.20
2018-07-04T13:54:56.492Z,36.40
2018-07-04T13:58:04.118Z,37.20
2018-07-04T14:01:09.085Z,37.00
2018-07-04T14:04:13.392Z,37.10
2018-07-04T14:07:18.639Z,37.60
2018-07-04T14:10:23.251Z,36.70
2018-07-04T14:13:27.993Z,37.50
2018-07-04T14:16:32.500Z,37.40
2018-07-04T14:19:36.707Z,38.10
2018-07-04T14:22:42.000Z,38.60
2018-07-04T14:28:45.608Z,36.90
2018-07-04T14:31:50.289Z,38.80
2018-07-04T14:34:55.820Z,37.50
2018-07-04T14:38:06.851Z,37.50
2018-07-04T14:41:12.181Z,38.80
2018-07-04T14:44:16.595Z,38.30
2018-07-04T14:47:22.370Z,38.30
2018-07-04T14:50:26.653Z,37.50
2018-07-04T14:53:30.932Z,38.20
2018-07-04T14:56:36.235Z,38.50
2018-07-04T14:59:40.991Z,38.10
2018-07-04T15:02:45.368Z,38.30
2018-07-04T15:05:49.921Z,39.10
2018-07-04T15:08:56.237Z,38.80
2018-07-04T15:12:00.661Z,38.70
2018-07-04T15:15:06.040Z,37.90
2018-07-04T15:18:10.307Z,39.10
2018-07-04T15:21:15.660Z,38.20
2018-07-04T15:24:20.200Z,37.00
2018-07-04T15:27:25.312Z,37.20
2018-07-04T15:30:30.119Z,37.70
2018-07-04T15:33:36.725Z,36.90
2018-07-04T15:39:40.042Z,39.60
2018-07-04T15:42:45.082Z,38.90
2018-07-04T15:48:48.333Z,37.50
2018-07-04T15:51:53.263Z,37.50
2018-07-04T15:54:58.601Z,36.90
2018-07-04T15:58:03.387Z,37.50
2018-07-04T16:01:11.073Z,37.80
2018-07-04T16:04:15.495Z,38.00
2018-07-04T16:07:19.710Z,38.10
2018-07-04T16:10:24.296Z,37.20
2018-07-04T16:13:29.616Z,36.90
2018-07-04T16:16:34.339Z,37.00
2018-07-04T16:19:38.923Z,37.40
2018-07-04T16:22:43.130Z,38.00
2018-07-04T16:25:47.627Z,38.00
2018-07-04T16:28:53.267Z,37.90
2018-07-04T16:31:58.275Z,37.70
2018-07-04T16:35:02.411Z,37.60
2018-07-04T16:38:06.581Z,37.00
2018-07-04T16:41:10.692Z,37.10
2018-07-04T16:44:14.958Z,37.40
2018-07-04T16:47:19.312Z,37.70
2018-07-04T16:50:23.695Z,37.70
2018-07-04T16:53:28.020Z,38.60
2018-07-04T16:56:32.319Z,38.10
2018-07-04T16:59:36.641Z,37.80
2018-07-04T17:02:42.044Z,38.20
2018-07-04T17:05:46.654Z,38.30
2018-07-04T17:08:51.010Z,38.30
2018-07-04T17:11:56.193Z,38.60
2018-07-04T17:15:00.694Z,39.00
2018-07-04T17:18:05.710Z,38.50
2018-07-04T17:21:10.061Z,38.90
2018-07-04T17:24:15.055Z,39.10
2018-07-04T17:27:19.386Z,39.00
2018-07-04T17:30:23.573Z,39.10
2018-07-04T17:33:27.873Z,39.50
2018-07-04T17:36:32.417Z,39.60
2018-07-04T17:39:36.800Z,39.90
2018-07-04T17:42:41.081Z,40.50
2018-07-04T17:45:45.480Z,40.40
2018-07-04T17:48:49.816Z,40.70
2018-07-04T17:51:55.467Z,41.00
2018-07-04T17:54:59.900Z,41.30
2018-07-04T17:58:04.160Z,41.80
2018-07-04T18:01:08.599Z,42.30
2018-07-04T18:07:12.193Z,43.50
2018-07-04T18:10:16.840Z,44.60
2018-07-04T18:13:22.309Z,45.50
2018-07-04T18:16:27.090Z,45.80
2018-07-04T18:19:31.232Z,46.40
2018-07-04T18:22:35.756Z,47.30
2018-07-04T18:25:40.034Z,49.20
2018-07-04T18:28:45.343Z,48.90
2018-07-04T18:34:48.077Z,49.80
2018-07-04T18:37:53.199Z,50.10
2018-07-04T18:40:58.077Z,49.00
2018-07-04T18:44:02.369Z,49.50
2018-07-04T18:47:06.629Z,49.80
2018-07-04T18:50:11.011Z,49.60
2018-07-04T18:53:15.370Z,50.80
2018-07-04T18:56:19.785Z,51.10
2018-07-04T18:59:24.027Z,51.30
2018-07-04T19:02:28.423Z,51.30
2018-07-04T19:05:32.624Z,51.60
2018-07-04T19:08:36.859Z,51.10
2018-07-04T19:11:42.177Z,49.40
2018-07-04T19:14:46.671Z,49.40
2018-07-04T19:17:51.830Z,49.50
2018-07-04T19:20:56.279Z,49.40
2018-07-04T19:24:00.649Z,49.70
2018-07-04T19:27:06.012Z,49.60
2018-07-04T19:30:10.193Z,49.90
2018-07-04T19:33:15.468Z,50.40
2018-07-04T19:36:19.757Z,50.80
2018-07-04T19:39:24.201Z,51.10
2018-07-04T19:42:28.656Z,51.60
2018-07-04T19:48:31.364Z,51.40
2018-07-04T19:51:35.941Z,50.90
2018-07-04T19:54:40.302Z,50.90
2018-07-04T19:57:44.945Z,50.90
2018-07-04T20:00:49.211Z,51.10
2018-07-04T20:03:53.722Z,51.40
2018-07-04T20:06:57.985Z,51.50
2018-07-04T20:10:02.405Z,51.60
2018-07-04T20:13:06.605Z,52.00
2018-07-04T20:16:10.809Z,52.30
2018-07-04T20:19:14.969Z,52.50
2018-07-04T20:22:19.246Z,53.10
2018-07-04T20:25:23.490Z,53.20
2018-07-04T20:28:28.175Z,54.80
2018-07-04T20:31:37.452Z,54.10
2018-07-04T20:37:40.143Z,54.30
2018-07-04T20:40:44.917Z,56.40
2018-07-04T20:43:49.167Z,56.30
2018-07-04T20:46:53.515Z,56.00
2018-07-04T20:49:58.210Z,55.00
2018-07-04T20:53:03.612Z,54.40
2018-07-04T20:56:09.067Z,53.20
2018-07-04T20:59:13.941Z,52.70
2018-07-04T21:02:18.172Z,52.40
2018-07-04T21:05:22.464Z,52.00
2018-07-04T21:08:26.844Z,51.50
2018-07-04T21:11:31.084Z,51.50
2018-07-04T21:14:36.306Z,50.80
2018-07-04T21:17:40.506Z,50.50
2018-07-04T21:20:45.024Z,50.20
2018-07-04T21:23:49.344Z,49.90
2018-07-04T21:26:53.712Z,50.00
2018-07-04T21:29:58.007Z,50.20
2018-07-04T21:33:02.881Z,50.30
2018-07-04T21:36:07.088Z,50.40
2018-07-04T21:39:12.108Z,50.30
2018-07-04T21:48:13.350Z,51.20
2018-07-04T21:51:17.568Z,51.10
2018-07-04T21:54:22.707Z,51.10
2018-07-04T21:57:27.103Z,51.40
2018-07-04T22:00:31.545Z,51.30
2018-07-04T22:03:36.007Z,51.60
2018-07-04T22:06:41.163Z,51.90
2018-07-04T22:09:45.492Z,52.10
2018-07-04T22:12:49.985Z,52.50
2018-07-04T22:15:55.189Z,53.10
2018-07-04T22:18:59.623Z,53.80
2018-07-04T22:22:04.449Z,54.40
2018-07-04T22:25:08.685Z,54.50
2018-07-04T22:28:13.351Z,54.70
2018-07-04T22:31:17.583Z,54.80
2018-07-04T22:34:22.356Z,55.20
2018-07-04T22:37:26.572Z,55.70
2018-07-04T22:40:30.813Z,55.60
2018-07-04T22:43:35.967Z,55.60
2018-07-04T22:46:40.223Z,55.50
2018-07-04T22:49:44.895Z,55.50
2018-07-04T22:52:50.612Z,55.50
2018-07-04T22:55:55.232Z,55.50
2018-07-04T22:58:59.604Z,55.40
2018-07-04T23:02:04.069Z,55.30
2018-07-04T23:05:08.537Z,55.40
2018-07-04T23:08:12.976Z,55.30
2018-07-04T23:11:17.427Z,55.20
2018-07-04T23:14:22.417Z,55.20
2018-07-04T23:17:26.716Z,55.20
2018-07-04T23:20:31.596Z,55.20
2018-07-04T23:23:36.629Z,55.20
2018-07-04T23:26:41.079Z,55.20
2018-07-04T23:29:45.288Z,55.20
2018-07-04T23:32:49.642Z,55.10
2018-07-04T23:35:54.032Z,55.10
2018-07-04T23:38:58.321Z,55.10
2018-07-04T23:42:02.768Z,55.60
2018-07-04T23:45:07.197Z,55.90
2018-07-04T23:48:12.139Z,56.30
2018-07-04T23:51:16.721Z,56.10
2018-07-04T23:54:21.269Z,56.10
